sensor_id;sensor_type;location;lat;lon;timestamp;temperature;humidity
34837;DHT22;21053;50.848;4.652;2023-12-20T00:02:07;7.60;99.90
34837;DHT22;21053;50.848;4.652;2023-12-20T00:04:37;7.60;99.90
34837;DHT22;21053;50.848;4.652;2023-12-20T00:07:04;7.50;99.90
34837;DHT22;21053;50.848;4.652;2023-12-20T00:09:32;7.30;99.90
34837;DHT22;21053;50.848;4.652;2023-12-20T00:11:57;7.30;99.90
34837;DHT22;21053;50.848;4.652;2023-12-20T00:14:24;7.40;99.90
34837;DHT22;21053;50.848;4.652;2023-12-20T00:16:50;7.30;99.90
34837;DHT22;21053;50.848;4.652;2023-12-20T00:19:18;7.10;99.90
34837;DHT22;21053;50.848;4.652;2023-12-20T00:21:44;7.10;99.90
34837;DHT22;21053;50.848;4.652;2023-12-20T00:24:13;7.10;99.90
34837;DHT22;21053;50.848;4.652;2023-12-20T00:26:40;7.20;99.90
34837;DHT22;21053;50.848;4.652;2023-12-20T00:29:07;7.20;99.90
34837;DHT22;21053;50.848;4.652;2023-12-20T00:31:33;7.20;99.90
34837;DHT22;21053;50.848;4.652;2023-12-20T00:34:00;7.30;99.90
34837;DHT22;21053;50.848;4.652;2023-12-20T00:36:27;7.30;99.90
34837;DHT22;21053;50.848;4.652;2023-12-20T00:38:56;7.20;99.90
34837;DHT22;21053;50.848;4.652;2023-12-20T00:41:25;7.30;99.90
34837;DHT22;21053;50.848;4.652;2023-12-20T00:43:51;7.50;99.90
34837;DHT22;21053;50.848;4.652;2023-12-20T00:46:17;7.40;99.90
34837;DHT22;21053;50.848;4.652;2023-12-20T00:48:45;7.50;99.90
34837;DHT22;21053;50.848;4.652;2023-12-20T00:51:14;7.50;99.90
34837;DHT22;21053;50.848;4.652;2023-12-20T00:53:41;7.40;99.90
34837;DHT22;21053;50.848;4.652;2023-12-20T00:56:10;7.40;99.90
34837;DHT22;21053;50.848;4.652;2023-12-20T00:58:39;7.50;99.90
34837;DHT22;21053;50.848;4.652;2023-12-20T01:01:10;7.50;99.90
34837;DHT22;21053;50.848;4.652;2023-12-20T01:03:38;7.40;99.90
34837;DHT22;21053;50.848;4.652;2023-12-20T01:06:04;7.40;99.90
34837;DHT22;21053;50.848;4.652;2023-12-20T01:08:31;7.20;99.90
34837;DHT22;21053;50.848;4.652;2023-12-20T01:10:57;7.10;99.90
34837;DHT22;21053;50.848;4.652;2023-12-20T01:13:23;7.00;99.90
34837;DHT22;21053;50.848;4.652;2023-12-20T01:15:52;7.00;99.90
34837;DHT22;21053;50.848;4.652;2023-12-20T01:18:20;7.00;99.90
34837;DHT22;21053;50.848;4.652;2023-12-20T01:20:49;7.00;99.90
34837;DHT22;21053;50.848;4.652;2023-12-20T01:23:18;6.90;99.90
34837;DHT22;21053;50.848;4.652;2023-12-20T01:25:47;6.90;99.90
34837;DHT22;21053;50.848;4.652;2023-12-20T01:28:16;6.90;99.90
34837;DHT22;21053;50.848;4.652;2023-12-20T01:30:45;6.90;99.90
34837;DHT22;21053;50.848;4.652;2023-12-20T01:33:14;7.00;99.90
34837;DHT22;21053;50.848;4.652;2023-12-20T01:35:40;7.00;99.90
34837;DHT22;21053;50.848;4.652;2023-12-20T01:38:06;7.00;99.90
34837;DHT22;21053;50.848;4.652;2023-12-20T01:40:34;6.90;99.90
34837;DHT22;21053;50.848;4.652;2023-12-20T01:43:06;6.80;99.90
34837;DHT22;21053;50.848;4.652;2023-12-20T01:45:35;6.80;99.90
34837;DHT22;21053;50.848;4.652;2023-12-20T01:48:02;6.80;99.90
34837;DHT22;21053;50.848;4.652;2023-12-20T01:50:29;6.70;99.90
34837;DHT22;21053;50.848;4.652;2023-12-20T01:53:01;6.70;99.90
34837;DHT22;21053;50.848;4.652;2023-12-20T01:55:29;6.70;99.90
34837;DHT22;21053;50.848;4.652;2023-12-20T01:57:58;6.80;99.90
34837;DHT22;21053;50.848;4.652;2023-12-20T02:00:26;6.70;99.90
34837;DHT22;21053;50.848;4.652;2023-12-20T02:02:55;6.70;99.90
34837;DHT22;21053;50.848;4.652;2023-12-20T02:05:22;6.70;99.90
34837;DHT22;21053;50.848;4.652;2023-12-20T02:07:50;6.80;99.90
34837;DHT22;21053;50.848;4.652;2023-12-20T02:10:18;6.80;99.90
34837;DHT22;21053;50.848;4.652;2023-12-20T02:12:44;6.80;99.90
34837;DHT22;21053;50.848;4.652;2023-12-20T02:15:11;6.80;99.90
34837;DHT22;21053;50.848;4.652;2023-12-20T02:17:39;6.90;99.90
34837;DHT22;21053;50.848;4.652;2023-12-20T02:20:07;6.80;99.90
34837;DHT22;21053;50.848;4.652;2023-12-20T02:22:36;6.90;99.90
34837;DHT22;21053;50.848;4.652;2023-12-20T02:25:02;6.90;99.90
34837;DHT22;21053;50.848;4.652;2023-12-20T02:27:29;6.90;99.90
34837;DHT22;21053;50.848;4.652;2023-12-20T02:29:55;6.80;99.90
34837;DHT22;21053;50.848;4.652;2023-12-20T02:32:22;6.70;99.90
34837;DHT22;21053;50.848;4.652;2023-12-20T02:34:54;6.80;99.90
34837;DHT22;21053;50.848;4.652;2023-12-20T02:37:21;6.90;99.90
34837;DHT22;21053;50.848;4.652;2023-12-20T02:39:50;6.80;99.90
34837;DHT22;21053;50.848;4.652;2023-12-20T02:42:15;6.80;99.90
34837;DHT22;21053;50.848;4.652;2023-12-20T02:44:42;6.70;99.90
34837;DHT22;21053;50.848;4.652;2023-12-20T02:47:08;6.90;99.90
34837;DHT22;21053;50.848;4.652;2023-12-20T02:49:37;6.90;99.90
34837;DHT22;21053;50.848;4.652;2023-12-20T02:52:05;6.90;99.90
34837;DHT22;21053;50.848;4.652;2023-12-20T02:54:31;7.10;99.90
34837;DHT22;21053;50.848;4.652;2023-12-20T02:56:56;7.20;99.90
34837;DHT22;21053;50.848;4.652;2023-12-20T02:59:22;7.20;99.90
34837;DHT22;21053;50.848;4.652;2023-12-20T03:01:48;7.30;99.90
34837;DHT22;21053;50.848;4.652;2023-12-20T03:04:14;7.30;99.90
34837;DHT22;21053;50.848;4.652;2023-12-20T03:06:39;7.30;99.90
34837;DHT22;21053;50.848;4.652;2023-12-20T03:09:06;7.20;99.90
34837;DHT22;21053;50.848;4.652;2023-12-20T03:11:35;7.30;99.90
34837;DHT22;21053;50.848;4.652;2023-12-20T03:14:03;7.30;99.90
34837;DHT22;21053;50.848;4.652;2023-12-20T03:16:30;7.40;99.90
34837;DHT22;21053;50.848;4.652;2023-12-20T03:18:59;7.50;99.90
34837;DHT22;21053;50.848;4.652;2023-12-20T03:21:26;7.50;99.90
34837;DHT22;21053;50.848;4.652;2023-12-20T03:23:55;7.40;99.90
34837;DHT22;21053;50.848;4.652;2023-12-20T03:26:21;7.50;99.90
34837;DHT22;21053;50.848;4.652;2023-12-20T03:28:51;7.40;99.90
34837;DHT22;21053;50.848;4.652;2023-12-20T03:31:17;7.40;99.90
34837;DHT22;21053;50.848;4.652;2023-12-20T03:33:46;7.30;99.90
34837;DHT22;21053;50.848;4.652;2023-12-20T03:36:13;7.20;99.90
34837;DHT22;21053;50.848;4.652;2023-12-20T03:38:38;7.20;99.90
34837;DHT22;21053;50.848;4.652;2023-12-20T03:41:06;7.20;99.90
34837;DHT22;21053;50.848;4.652;2023-12-20T03:43:34;7.20;99.90
34837;DHT22;21053;50.848;4.652;2023-12-20T03:46:03;7.20;99.90
34837;DHT22;21053;50.848;4.652;2023-12-20T03:48:32;7.20;99.90
34837;DHT22;21053;50.848;4.652;2023-12-20T03:51:01;7.20;99.90
34837;DHT22;21053;50.848;4.652;2023-12-20T03:53:27;7.10;99.90
34837;DHT22;21053;50.848;4.652;2023-12-20T03:55:54;7.10;99.90
34837;DHT22;21053;50.848;4.652;2023-12-20T03:58:20;7.10;99.90
34837;DHT22;21053;50.848;4.652;2023-12-20T04:00:49;7.00;99.90
34837;DHT22;21053;50.848;4.652;2023-12-20T04:03:17;7.20;99.90
34837;DHT22;21053;50.848;4.652;2023-12-20T04:05:43;7.20;99.90
34837;DHT22;21053;50.848;4.652;2023-12-20T04:08:09;7.20;99.90
34837;DHT22;21053;50.848;4.652;2023-12-20T04:10:35;7.30;99.90
34837;DHT22;21053;50.848;4.652;2023-12-20T04:13:05;7.30;99.90
34837;DHT22;21053;50.848;4.652;2023-12-20T04:15:33;7.40;99.90
34837;DHT22;21053;50.848;4.652;2023-12-20T04:18:02;7.40;99.90
34837;DHT22;21053;50.848;4.652;2023-12-20T04:20:28;7.50;99.90
34837;DHT22;21053;50.848;4.652;2023-12-20T04:22:54;7.50;99.90
34837;DHT22;21053;50.848;4.652;2023-12-20T04:25:20;7.50;99.90
34837;DHT22;21053;50.848;4.652;2023-12-20T04:27:47;7.40;99.90
34837;DHT22;21053;50.848;4.652;2023-12-20T04:30:14;7.40;99.90
34837;DHT22;21053;50.848;4.652;2023-12-20T04:32:39;7.30;99.90
34837;DHT22;21053;50.848;4.652;2023-12-20T04:35:20;7.30;99.90
34837;DHT22;21053;50.848;4.652;2023-12-20T04:37:46;7.30;99.90
34837;DHT22;21053;50.848;4.652;2023-12-20T04:40:13;7.20;99.90
34837;DHT22;21053;50.848;4.652;2023-12-20T04:42:41;7.10;99.90
34837;DHT22;21053;50.848;4.652;2023-12-20T04:45:08;7.10;99.90
34837;DHT22;21053;50.848;4.652;2023-12-20T04:47:34;7.10;99.90
34837;DHT22;21053;50.848;4.652;2023-12-20T04:50:00;7.10;99.90
34837;DHT22;21053;50.848;4.652;2023-12-20T04:52:30;7.10;99.90
34837;DHT22;21053;50.848;4.652;2023-12-20T04:54:57;7.00;99.90
34837;DHT22;21053;50.848;4.652;2023-12-20T04:57:26;7.00;99.90
34837;DHT22;21053;50.848;4.652;2023-12-20T04:59:55;6.90;99.90
34837;DHT22;21053;50.848;4.652;2023-12-20T05:02:21;7.00;99.90
34837;DHT22;21053;50.848;4.652;2023-12-20T05:04:48;7.00;99.90
34837;DHT22;21053;50.848;4.652;2023-12-20T05:07:16;7.10;99.90
34837;DHT22;21053;50.848;4.652;2023-12-20T05:09:43;7.00;99.90
34837;DHT22;21053;50.848;4.652;2023-12-20T05:12:10;7.00;99.90
34837;DHT22;21053;50.848;4.652;2023-12-20T05:14:38;7.10;99.90
34837;DHT22;21053;50.848;4.652;2023-12-20T05:17:07;7.10;99.90
34837;DHT22;21053;50.848;4.652;2023-12-20T05:19:34;7.10;99.90
34837;DHT22;21053;50.848;4.652;2023-12-20T05:22:03;7.10;99.90
34837;DHT22;21053;50.848;4.652;2023-12-20T05:24:30;7.00;99.90
34837;DHT22;21053;50.848;4.652;2023-12-20T05:26:56;7.00;99.90
34837;DHT22;21053;50.848;4.652;2023-12-20T05:29:23;7.00;99.90
34837;DHT22;21053;50.848;4.652;2023-12-20T05:31:49;6.90;99.90
34837;DHT22;21053;50.848;4.652;2023-12-20T05:34:17;6.90;99.90
34837;DHT22;21053;50.848;4.652;2023-12-20T05:36:42;6.90;99.90
34837;DHT22;21053;50.848;4.652;2023-12-20T05:39:09;7.00;99.90
34837;DHT22;21053;50.848;4.652;2023-12-20T05:41:35;7.00;99.90
34837;DHT22;21053;50.848;4.652;2023-12-20T05:44:03;7.00;99.90
34837;DHT22;21053;50.848;4.652;2023-12-20T05:46:31;7.00;99.90
34837;DHT22;21053;50.848;4.652;2023-12-20T05:49:03;6.90;99.90
34837;DHT22;21053;50.848;4.652;2023-12-20T05:51:29;6.90;99.90
34837;DHT22;21053;50.848;4.652;2023-12-20T05:53:55;6.80;99.90
34837;DHT22;21053;50.848;4.652;2023-12-20T05:56:23;6.80;99.90
34837;DHT22;21053;50.848;4.652;2023-12-20T05:58:52;6.80;99.90
34837;DHT22;21053;50.848;4.652;2023-12-20T06:01:19;6.80;99.90
34837;DHT22;21053;50.848;4.652;2023-12-20T06:03:47;6.70;99.90
34837;DHT22;21053;50.848;4.652;2023-12-20T06:06:14;6.60;99.90
34837;DHT22;21053;50.848;4.652;2023-12-20T06:08:41;6.60;99.90
34837;DHT22;21053;50.848;4.652;2023-12-20T06:11:06;6.70;99.90
34837;DHT22;21053;50.848;4.652;2023-12-20T06:13:35;6.80;99.90
34837;DHT22;21053;50.848;4.652;2023-12-20T06:16:04;6.70;99.90
34837;DHT22;21053;50.848;4.652;2023-12-20T06:18:31;6.70;99.90
34837;DHT22;21053;50.848;4.652;2023-12-20T06:21:00;6.70;99.90
34837;DHT22;21053;50.848;4.652;2023-12-20T06:23:28;6.80;99.90
34837;DHT22;21053;50.848;4.652;2023-12-20T06:25:55;6.80;99.90
34837;DHT22;21053;50.848;4.652;2023-12-20T06:28:21;6.80;99.90
34837;DHT22;21053;50.848;4.652;2023-12-20T06:30:52;6.80;99.90
34837;DHT22;21053;50.848;4.652;2023-12-20T06:33:20;6.90;99.90
34837;DHT22;21053;50.848;4.652;2023-12-20T06:35:49;7.00;99.90
34837;DHT22;21053;50.848;4.652;2023-12-20T06:38:15;7.00;99.90
34837;DHT22;21053;50.848;4.652;2023-12-20T06:40:48;7.00;99.90
34837;DHT22;21053;50.848;4.652;2023-12-20T06:43:15;7.00;99.90
34837;DHT22;21053;50.848;4.652;2023-12-20T06:45:43;6.90;99.90
34837;DHT22;21053;50.848;4.652;2023-12-20T06:48:12;7.00;99.90
34837;DHT22;21053;50.848;4.652;2023-12-20T06:50:41;6.90;99.90
34837;DHT22;21053;50.848;4.652;2023-12-20T06:53:07;7.00;99.90
34837;DHT22;21053;50.848;4.652;2023-12-20T06:55:36;7.00;99.90
34837;DHT22;21053;50.848;4.652;2023-12-20T06:58:03;6.90;99.90
34837;DHT22;21053;50.848;4.652;2023-12-20T07:00:32;7.00;99.90
34837;DHT22;21053;50.848;4.652;2023-12-20T07:03:02;7.00;99.90
34837;DHT22;21053;50.848;4.652;2023-12-20T07:05:28;6.90;99.90
34837;DHT22;21053;50.848;4.652;2023-12-20T07:07:55;6.80;99.90
34837;DHT22;21053;50.848;4.652;2023-12-20T07:10:24;6.70;99.90
34837;DHT22;21053;50.848;4.652;2023-12-20T07:12:52;6.60;99.90
34837;DHT22;21053;50.848;4.652;2023-12-20T07:15:22;6.60;99.90
34837;DHT22;21053;50.848;4.652;2023-12-20T07:17:48;6.60;99.90
34837;DHT22;21053;50.848;4.652;2023-12-20T07:20:16;6.50;99.90
34837;DHT22;21053;50.848;4.652;2023-12-20T07:22:44;6.50;99.90
34837;DHT22;21053;50.848;4.652;2023-12-20T07:25:13;6.50;99.90
34837;DHT22;21053;50.848;4.652;2023-12-20T07:27:42;6.50;99.90
34837;DHT22;21053;50.848;4.652;2023-12-20T07:30:08;6.50;99.90
34837;DHT22;21053;50.848;4.652;2023-12-20T07:32:34;6.60;99.90
34837;DHT22;21053;50.848;4.652;2023-12-20T07:35:02;6.60;99.90
34837;DHT22;21053;50.848;4.652;2023-12-20T07:37:28;6.50;99.90
34837;DHT22;21053;50.848;4.652;2023-12-20T07:39:56;6.60;99.90
34837;DHT22;21053;50.848;4.652;2023-12-20T07:42:21;6.50;99.90
34837;DHT22;21053;50.848;4.652;2023-12-20T07:44:49;6.40;99.90
34837;DHT22;21053;50.848;4.652;2023-12-20T07:47:15;6.50;99.90
34837;DHT22;21053;50.848;4.652;2023-12-20T07:49:45;6.40;99.90
34837;DHT22;21053;50.848;4.652;2023-12-20T07:52:12;6.50;99.90
34837;DHT22;21053;50.848;4.652;2023-12-20T07:54:41;6.50;99.90
34837;DHT22;21053;50.848;4.652;2023-12-20T07:57:10;6.60;99.90
34837;DHT22;21053;50.848;4.652;2023-12-20T07:59:36;6.60;99.90
34837;DHT22;21053;50.848;4.652;2023-12-20T08:02:03;6.50;99.90
34837;DHT22;21053;50.848;4.652;2023-12-20T08:04:32;6.50;99.90
34837;DHT22;21053;50.848;4.652;2023-12-20T08:06:58;6.50;99.90
34837;DHT22;21053;50.848;4.652;2023-12-20T08:09:24;6.50;99.90
34837;DHT22;21053;50.848;4.652;2023-12-20T08:11:51;6.50;99.90
34837;DHT22;21053;50.848;4.652;2023-12-20T08:14:20;6.40;99.90
34837;DHT22;21053;50.848;4.652;2023-12-20T08:16:46;6.50;99.90
34837;DHT22;21053;50.848;4.652;2023-12-20T08:19:21;6.50;99.90
34837;DHT22;21053;50.848;4.652;2023-12-20T08:21:49;6.60;99.90
34837;DHT22;21053;50.848;4.652;2023-12-20T08:24:18;6.70;99.90
34837;DHT22;21053;50.848;4.652;2023-12-20T08:26:45;6.70;99.90
34837;DHT22;21053;50.848;4.652;2023-12-20T08:29:14;6.80;99.90
34837;DHT22;21053;50.848;4.652;2023-12-20T08:31:41;6.80;99.90
34837;DHT22;21053;50.848;4.652;2023-12-20T08:34:10;6.80;99.90
34837;DHT22;21053;50.848;4.652;2023-12-20T08:36:37;6.90;99.90
34837;DHT22;21053;50.848;4.652;2023-12-20T08:39:05;6.90;99.90
34837;DHT22;21053;50.848;4.652;2023-12-20T08:41:35;6.80;99.90
34837;DHT22;21053;50.848;4.652;2023-12-20T08:46:14;6.90;99.90
34837;DHT22;21053;50.848;4.652;2023-12-20T08:48:41;6.90;99.90
34837;DHT22;21053;50.848;4.652;2023-12-20T08:51:10;7.00;99.90
34837;DHT22;21053;50.848;4.652;2023-12-20T08:53:39;7.20;99.90
34837;DHT22;21053;50.848;4.652;2023-12-20T08:56:05;7.30;99.90
34837;DHT22;21053;50.848;4.652;2023-12-20T08:58:34;7.40;99.90
34837;DHT22;21053;50.848;4.652;2023-12-20T09:01:03;7.50;99.90
34837;DHT22;21053;50.848;4.652;2023-12-20T09:03:31;7.60;99.90
34837;DHT22;21053;50.848;4.652;2023-12-20T09:05:57;7.50;99.90
34837;DHT22;21053;50.848;4.652;2023-12-20T09:08:24;7.40;99.90
34837;DHT22;21053;50.848;4.652;2023-12-20T09:13:19;7.40;99.90
34837;DHT22;21053;50.848;4.652;2023-12-20T09:15:48;7.40;99.90
34837;DHT22;21053;50.848;4.652;2023-12-20T09:18:16;7.40;99.90
34837;DHT22;21053;50.848;4.652;2023-12-20T09:20:42;7.40;99.90
34837;DHT22;21053;50.848;4.652;2023-12-20T09:23:08;7.50;99.90
34837;DHT22;21053;50.848;4.652;2023-12-20T09:25:34;7.50;99.90
34837;DHT22;21053;50.848;4.652;2023-12-20T09:28:00;7.50;99.90
34837;DHT22;21053;50.848;4.652;2023-12-20T09:30:26;7.60;99.90
34837;DHT22;21053;50.848;4.652;2023-12-20T09:32:55;7.50;99.90
34837;DHT22;21053;50.848;4.652;2023-12-20T09:35:24;7.50;99.90
34837;DHT22;21053;50.848;4.652;2023-12-20T09:37:50;7.60;99.90
34837;DHT22;21053;50.848;4.652;2023-12-20T09:40:18;7.70;99.90
34837;DHT22;21053;50.848;4.652;2023-12-20T09:42:58;7.60;99.90
34837;DHT22;21053;50.848;4.652;2023-12-20T09:45:27;7.60;99.90
34837;DHT22;21053;50.848;4.652;2023-12-20T09:47:54;7.60;99.90
34837;DHT22;21053;50.848;4.652;2023-12-20T09:50:21;7.60;99.90
34837;DHT22;21053;50.848;4.652;2023-12-20T09:52:52;7.80;99.90
34837;DHT22;21053;50.848;4.652;2023-12-20T09:55:21;7.80;99.90
34837;DHT22;21053;50.848;4.652;2023-12-20T09:57:48;7.90;99.90
34837;DHT22;21053;50.848;4.652;2023-12-20T10:00:16;8.00;99.90
34837;DHT22;21053;50.848;4.652;2023-12-20T10:03:00;8.20;99.90
34837;DHT22;21053;50.848;4.652;2023-12-20T10:05:33;8.40;99.90
34837;DHT22;21053;50.848;4.652;2023-12-20T10:08:00;8.60;99.90
34837;DHT22;21053;50.848;4.652;2023-12-20T10:10:27;8.70;99.90
34837;DHT22;21053;50.848;4.652;2023-12-20T10:13:07;8.80;99.90
34837;DHT22;21053;50.848;4.652;2023-12-20T10:15:37;9.00;99.90
34837;DHT22;21053;50.848;4.652;2023-12-20T10:18:04;9.10;99.90
34837;DHT22;21053;50.848;4.652;2023-12-20T10:20:32;9.20;99.90
34837;DHT22;21053;50.848;4.652;2023-12-20T10:23:00;9.10;99.90
34837;DHT22;21053;50.848;4.652;2023-12-20T10:25:29;9.00;99.90
34837;DHT22;21053;50.848;4.652;2023-12-20T10:28:13;9.10;99.90
34837;DHT22;21053;50.848;4.652;2023-12-20T10:30:42;9.10;99.90
34837;DHT22;21053;50.848;4.652;2023-12-20T10:33:11;9.20;99.90
34837;DHT22;21053;50.848;4.652;2023-12-20T10:35:38;9.10;99.90
34837;DHT22;21053;50.848;4.652;2023-12-20T10:38:06;9.20;99.90
34837;DHT22;21053;50.848;4.652;2023-12-20T10:40:35;9.20;99.90
34837;DHT22;21053;50.848;4.652;2023-12-20T10:43:04;9.20;99.90
34837;DHT22;21053;50.848;4.652;2023-12-20T10:45:32;9.20;99.90
34837;DHT22;21053;50.848;4.652;2023-12-20T10:50:27;9.20;99.90
34837;DHT22;21053;50.848;4.652;2023-12-20T10:52:55;9.30;99.90
34837;DHT22;21053;50.848;4.652;2023-12-20T10:55:27;9.30;99.90
34837;DHT22;21053;50.848;4.652;2023-12-20T10:58:06;9.20;99.90
34837;DHT22;21053;50.848;4.652;2023-12-20T11:00:39;9.20;99.90
34837;DHT22;21053;50.848;4.652;2023-12-20T11:03:09;9.30;99.90
34837;DHT22;21053;50.848;4.652;2023-12-20T11:05:46;9.40;99.90
34837;DHT22;21053;50.848;4.652;2023-12-20T11:13:26;9.30;99.90
34837;DHT22;21053;50.848;4.652;2023-12-20T11:15:54;9.40;99.90
34837;DHT22;21053;50.848;4.652;2023-12-20T11:18:40;9.40;99.90
34837;DHT22;21053;50.848;4.652;2023-12-20T11:21:07;9.40;99.90
34837;DHT22;21053;50.848;4.652;2023-12-20T11:23:35;9.40;99.90
34837;DHT22;21053;50.848;4.652;2023-12-20T11:26:04;9.30;99.90
34837;DHT22;21053;50.848;4.652;2023-12-20T11:28:30;9.30;99.90
34837;DHT22;21053;50.848;4.652;2023-12-20T11:31:00;9.30;99.90
34837;DHT22;21053;50.848;4.652;2023-12-20T11:33:31;9.40;99.90
34837;DHT22;21053;50.848;4.652;2023-12-20T11:35:59;9.20;99.90
34837;DHT22;21053;50.848;4.652;2023-12-20T11:38:36;9.30;99.90
34837;DHT22;21053;50.848;4.652;2023-12-20T11:41:05;9.30;99.90
34837;DHT22;21053;50.848;4.652;2023-12-20T11:43:40;9.30;99.90
34837;DHT22;21053;50.848;4.652;2023-12-20T11:46:09;9.40;99.90
34837;DHT22;21053;50.848;4.652;2023-12-20T11:48:38;9.30;99.90
34837;DHT22;21053;50.848;4.652;2023-12-20T11:51:16;9.30;99.90
34837;DHT22;21053;50.848;4.652;2023-12-20T11:53:51;9.50;99.90
34837;DHT22;21053;50.848;4.652;2023-12-20T11:56:19;9.60;99.90
34837;DHT22;21053;50.848;4.652;2023-12-20T11:58:48;9.50;99.90
34837;DHT22;21053;50.848;4.652;2023-12-20T12:01:15;9.40;99.90
34837;DHT22;21053;50.848;4.652;2023-12-20T12:03:44;9.50;99.90
34837;DHT22;21053;50.848;4.652;2023-12-20T12:06:13;9.40;99.90
34837;DHT22;21053;50.848;4.652;2023-12-20T12:08:42;9.40;99.90
34837;DHT22;21053;50.848;4.652;2023-12-20T12:11:08;9.50;99.90
34837;DHT22;21053;50.848;4.652;2023-12-20T12:13:36;9.60;99.90
34837;DHT22;21053;50.848;4.652;2023-12-20T12:16:04;9.60;99.90
34837;DHT22;21053;50.848;4.652;2023-12-20T12:18:31;9.70;99.90
34837;DHT22;21053;50.848;4.652;2023-12-20T12:21:01;9.60;99.90
34837;DHT22;21053;50.848;4.652;2023-12-20T12:23:28;9.70;99.90
34837;DHT22;21053;50.848;4.652;2023-12-20T12:25:55;9.70;99.90
34837;DHT22;21053;50.848;4.652;2023-12-20T12:28:26;9.70;99.90
34837;DHT22;21053;50.848;4.652;2023-12-20T12:31:03;9.70;99.90
34837;DHT22;21053;50.848;4.652;2023-12-20T12:33:30;9.60;99.90
34837;DHT22;21053;50.848;4.652;2023-12-20T12:35:56;9.60;99.90
34837;DHT22;21053;50.848;4.652;2023-12-20T12:38:25;9.50;99.90
34837;DHT22;21053;50.848;4.652;2023-12-20T12:40:55;9.50;99.90
34837;DHT22;21053;50.848;4.652;2023-12-20T12:43:24;9.50;99.90
34837;DHT22;21053;50.848;4.652;2023-12-20T12:45:49;9.40;99.90
34837;DHT22;21053;50.848;4.652;2023-12-20T12:48:21;9.50;99.90
34837;DHT22;21053;50.848;4.652;2023-12-20T12:50:49;9.50;99.90
34837;DHT22;21053;50.848;4.652;2023-12-20T12:53:20;9.60;99.90
34837;DHT22;21053;50.848;4.652;2023-12-20T12:55:48;9.60;99.90
34837;DHT22;21053;50.848;4.652;2023-12-20T12:58:17;9.70;99.90
34837;DHT22;21053;50.848;4.652;2023-12-20T13:00:53;9.50;99.90
34837;DHT22;21053;50.848;4.652;2023-12-20T13:03:20;9.60;99.90
34837;DHT22;21053;50.848;4.652;2023-12-20T13:05:46;9.60;99.90
34837;DHT22;21053;50.848;4.652;2023-12-20T13:08:16;9.70;99.90
34837;DHT22;21053;50.848;4.652;2023-12-20T13:10:43;9.60;99.90
34837;DHT22;21053;50.848;4.652;2023-12-20T13:13:09;9.70;99.90
34837;DHT22;21053;50.848;4.652;2023-12-20T13:15:38;9.70;99.90
34837;DHT22;21053;50.848;4.652;2023-12-20T13:18:05;9.80;99.90
34837;DHT22;21053;50.848;4.652;2023-12-20T13:20:35;9.70;99.90
34837;DHT22;21053;50.848;4.652;2023-12-20T13:23:02;9.70;99.90
34837;DHT22;21053;50.848;4.652;2023-12-20T13:25:32;9.70;99.90
34837;DHT22;21053;50.848;4.652;2023-12-20T13:28:09;9.70;99.90
34837;DHT22;21053;50.848;4.652;2023-12-20T13:30:38;9.70;99.90
34837;DHT22;21053;50.848;4.652;2023-12-20T13:33:07;9.80;99.90
34837;DHT22;21053;50.848;4.652;2023-12-20T13:35:34;9.80;99.90
34837;DHT22;21053;50.848;4.652;2023-12-20T13:38:01;9.80;99.90
34837;DHT22;21053;50.848;4.652;2023-12-20T13:40:28;9.80;99.90
34837;DHT22;21053;50.848;4.652;2023-12-20T13:42:56;9.90;99.90
34837;DHT22;21053;50.848;4.652;2023-12-20T13:45:24;9.90;99.90
34837;DHT22;21053;50.848;4.652;2023-12-20T13:47:53;9.90;99.90
34837;DHT22;21053;50.848;4.652;2023-12-20T13:50:24;9.90;99.90
34837;DHT22;21053;50.848;4.652;2023-12-20T13:52:51;9.90;99.90
34837;DHT22;21053;50.848;4.652;2023-12-20T13:55:20;9.90;99.90
34837;DHT22;21053;50.848;4.652;2023-12-20T13:57:53;9.70;99.90
34837;DHT22;21053;50.848;4.652;2023-12-20T14:00:24;9.80;99.90
34837;DHT22;21053;50.848;4.652;2023-12-20T14:02:53;9.80;99.90
34837;DHT22;21053;50.848;4.652;2023-12-20T14:05:18;9.70;99.90
34837;DHT22;21053;50.848;4.652;2023-12-20T14:07:47;9.80;99.90
34837;DHT22;21053;50.848;4.652;2023-12-20T14:10:14;9.70;99.90
34837;DHT22;21053;50.848;4.652;2023-12-20T14:12:41;9.70;99.90
34837;DHT22;21053;50.848;4.652;2023-12-20T14:15:07;9.70;99.90
34837;DHT22;21053;50.848;4.652;2023-12-20T14:17:41;9.70;99.90
34837;DHT22;21053;50.848;4.652;2023-12-20T14:20:16;9.70;99.90
34837;DHT22;21053;50.848;4.652;2023-12-20T14:22:41;9.80;99.90
34837;DHT22;21053;50.848;4.652;2023-12-20T14:25:16;9.90;99.90
34837;DHT22;21053;50.848;4.652;2023-12-20T14:27:45;9.80;99.90
34837;DHT22;21053;50.848;4.652;2023-12-20T14:30:14;9.80;99.90
34837;DHT22;21053;50.848;4.652;2023-12-20T14:32:43;9.80;99.90
34837;DHT22;21053;50.848;4.652;2023-12-20T14:35:11;9.90;99.90
34837;DHT22;21053;50.848;4.652;2023-12-20T14:37:40;10.00;99.90
34837;DHT22;21053;50.848;4.652;2023-12-20T14:40:09;10.00;99.90
34837;DHT22;21053;50.848;4.652;2023-12-20T14:42:44;9.90;99.90
34837;DHT22;21053;50.848;4.652;2023-12-20T14:45:14;9.90;99.90
34837;DHT22;21053;50.848;4.652;2023-12-20T14:47:43;10.00;99.90
34837;DHT22;21053;50.848;4.652;2023-12-20T14:50:16;10.00;99.90
34837;DHT22;21053;50.848;4.652;2023-12-20T14:52:44;9.90;99.90
34837;DHT22;21053;50.848;4.652;2023-12-20T14:55:14;9.90;99.90
34837;DHT22;21053;50.848;4.652;2023-12-20T14:57:39;9.90;99.90
34837;DHT22;21053;50.848;4.652;2023-12-20T15:00:11;9.90;99.90
34837;DHT22;21053;50.848;4.652;2023-12-20T15:02:43;10.00;99.90
34837;DHT22;21053;50.848;4.652;2023-12-20T15:05:10;9.90;99.90
34837;DHT22;21053;50.848;4.652;2023-12-20T15:07:37;10.00;99.90
34837;DHT22;21053;50.848;4.652;2023-12-20T15:10:03;9.90;99.90
34837;DHT22;21053;50.848;4.652;2023-12-20T15:12:32;9.80;99.90
34837;DHT22;21053;50.848;4.652;2023-12-20T15:15:00;9.90;99.90
34837;DHT22;21053;50.848;4.652;2023-12-20T15:17:29;9.90;99.90
34837;DHT22;21053;50.848;4.652;2023-12-20T15:19:56;9.90;99.90
34837;DHT22;21053;50.848;4.652;2023-12-20T15:22:25;9.80;99.90
34837;DHT22;21053;50.848;4.652;2023-12-20T15:24:52;9.90;99.90
34837;DHT22;21053;50.848;4.652;2023-12-20T15:27:23;10.00;99.90
34837;DHT22;21053;50.848;4.652;2023-12-20T15:29:49;9.90;99.90
34837;DHT22;21053;50.848;4.652;2023-12-20T15:32:17;10.00;99.90
34837;DHT22;21053;50.848;4.652;2023-12-20T15:34:45;10.00;99.90
34837;DHT22;21053;50.848;4.652;2023-12-20T15:37:12;10.10;99.90
34837;DHT22;21053;50.848;4.652;2023-12-20T15:39:41;10.10;99.90
34837;DHT22;21053;50.848;4.652;2023-12-20T15:42:08;10.00;99.90
34837;DHT22;21053;50.848;4.652;2023-12-20T15:44:34;10.00;99.90
34837;DHT22;21053;50.848;4.652;2023-12-20T15:47:01;10.00;99.90
34837;DHT22;21053;50.848;4.652;2023-12-20T15:49:26;10.00;99.90
34837;DHT22;21053;50.848;4.652;2023-12-20T15:51:52;10.10;99.90
34837;DHT22;21053;50.848;4.652;2023-12-20T15:54:18;10.10;99.90
34837;DHT22;21053;50.848;4.652;2023-12-20T15:56:44;10.10;99.90
34837;DHT22;21053;50.848;4.652;2023-12-20T15:59:16;10.20;99.90
34837;DHT22;21053;50.848;4.652;2023-12-20T16:01:44;10.20;99.90
34837;DHT22;21053;50.848;4.652;2023-12-20T16:04:11;10.20;99.90